sensor_id;sensor_type;location;lat;lon;timestamp;temperature;humidity
74178;DHT22;62540;48.456;-4.456;2022-12-07T00:00:55;6.36;74.93
74178;DHT22;62540;48.456;-4.456;2022-12-07T00:03:20;6.41;74.95
74178;DHT22;62540;48.456;-4.456;2022-12-07T00:05:45;6.42;74.65
74178;DHT22;62540;48.456;-4.456;2022-12-07T00:08:11;6.44;74.73
74178;DHT22;62540;48.456;-4.456;2022-12-07T00:10:36;6.45;74.73
74178;DHT22;62540;48.456;-4.456;2022-12-07T00:13:02;6.48;74.58
74178;DHT22;62540;48.456;-4.456;2022-12-07T00:15:27;6.49;74.26
74178;DHT22;62540;48.456;-4.456;2022-12-07T00:17:52;6.52;74.19
74178;DHT22;62540;48.456;-4.456;2022-12-07T00:20:18;6.50;74.13
74178;DHT22;62540;48.456;-4.456;2022-12-07T00:22:43;6.52;73.96
74178;DHT22;62540;48.456;-4.456;2022-12-07T00:25:09;6.53;73.91
74178;DHT22;62540;48.456;-4.456;2022-12-07T00:27:34;6.53;74.00
74178;DHT22;62540;48.456;-4.456;2022-12-07T00:29:59;6.56;74.04
74178;DHT22;62540;48.456;-4.456;2022-12-07T00:32:25;6.59;74.11
74178;DHT22;62540;48.456;-4.456;2022-12-07T00:34:51;6.56;73.95
74178;DHT22;62540;48.456;-4.456;2022-12-07T00:37:16;6.56;74.09
74178;DHT22;62540;48.456;-4.456;2022-12-07T00:39:41;6.59;74.24
74178;DHT22;62540;48.456;-4.456;2022-12-07T00:42:07;6.65;74.26
74178;DHT22;62540;48.456;-4.456;2022-12-07T00:44:32;6.64;74.26
74178;DHT22;62540;48.456;-4.456;2022-12-07T00:46:58;6.68;74.09
74178;DHT22;62540;48.456;-4.456;2022-12-07T00:49:23;6.69;74.12
74178;DHT22;62540;48.456;-4.456;2022-12-07T00:51:49;6.71;74.10
74178;DHT22;62540;48.456;-4.456;2022-12-07T00:54:14;6.71;74.20
74178;DHT22;62540;48.456;-4.456;2022-12-07T00:56:40;6.73;74.23
74178;DHT22;62540;48.456;-4.456;2022-12-07T00:59:05;6.75;74.04
74178;DHT22;62540;48.456;-4.456;2022-12-07T01:01:34;6.77;73.90
74178;DHT22;62540;48.456;-4.456;2022-12-07T01:04:02;6.79;73.82
74178;DHT22;62540;48.456;-4.456;2022-12-07T01:06:28;6.76;73.71
74178;DHT22;62540;48.456;-4.456;2022-12-07T01:08:54;6.79;73.94
74178;DHT22;62540;48.456;-4.456;2022-12-07T01:11:22;6.79;73.78
74178;DHT22;62540;48.456;-4.456;2022-12-07T01:13:53;6.77;73.77
74178;DHT22;62540;48.456;-4.456;2022-12-07T01:16:20;6.83;73.73
74178;DHT22;62540;48.456;-4.456;2022-12-07T01:18:47;6.87;73.64
74178;DHT22;62540;48.456;-4.456;2022-12-07T01:21:16;6.90;73.45
74178;DHT22;62540;48.456;-4.456;2022-12-07T01:23:42;6.93;73.48
74178;DHT22;62540;48.456;-4.456;2022-12-07T01:26:11;6.93;73.29
74178;DHT22;62540;48.456;-4.456;2022-12-07T01:28:37;6.97;73.17
74178;DHT22;62540;48.456;-4.456;2022-12-07T01:33:31;6.96;72.83
74178;DHT22;62540;48.456;-4.456;2022-12-07T01:36:04;6.94;72.80
74178;DHT22;62540;48.456;-4.456;2022-12-07T01:38:31;6.90;72.59
74178;DHT22;62540;48.456;-4.456;2022-12-07T01:40:57;6.93;72.26
74178;DHT22;62540;48.456;-4.456;2022-12-07T01:43:24;6.89;72.32
74178;DHT22;62540;48.456;-4.456;2022-12-07T01:45:51;6.90;72.05
74178;DHT22;62540;48.456;-4.456;2022-12-07T01:48:21;6.92;72.00
74178;DHT22;62540;48.456;-4.456;2022-12-07T01:50:49;6.93;71.38
74178;DHT22;62540;48.456;-4.456;2022-12-07T01:53:16;6.93;71.16
74178;DHT22;62540;48.456;-4.456;2022-12-07T01:55:44;6.85;70.69
74178;DHT22;62540;48.456;-4.456;2022-12-07T01:58:11;6.83;70.59
74178;DHT22;62540;48.456;-4.456;2022-12-07T02:00:37;6.85;70.86
74178;DHT22;62540;48.456;-4.456;2022-12-07T02:03:14;6.83;70.56
74178;DHT22;62540;48.456;-4.456;2022-12-07T02:05:43;6.80;70.28
74178;DHT22;62540;48.456;-4.456;2022-12-07T02:08:09;6.80;70.63
74178;DHT22;62540;48.456;-4.456;2022-12-07T02:10:36;6.85;70.69
74178;DHT22;62540;48.456;-4.456;2022-12-07T02:21:30;6.89;70.91
74178;DHT22;62540;48.456;-4.456;2022-12-07T02:32:43;7.00;70.89
74178;DHT22;62540;48.456;-4.456;2022-12-07T02:35:15;7.04;70.74
74178;DHT22;62540;48.456;-4.456;2022-12-07T02:40:39;7.04;70.74
74178;DHT22;62540;48.456;-4.456;2022-12-07T02:43:30;7.06;70.58
74178;DHT22;62540;48.456;-4.456;2022-12-07T02:46:02;7.04;70.58
74178;DHT22;62540;48.456;-4.456;2022-12-07T02:48:31;7.03;70.62
74178;DHT22;62540;48.456;-4.456;2022-12-07T02:50:58;7.04;70.57
74178;DHT22;62540;48.456;-4.456;2022-12-07T02:53:35;7.06;70.49
74178;DHT22;62540;48.456;-4.456;2022-12-07T03:10:00;7.31;70.36
74178;DHT22;62540;48.456;-4.456;2022-12-07T03:12:37;7.30;70.44
74178;DHT22;62540;48.456;-4.456;2022-12-07T03:15:20;7.30;70.52
74178;DHT22;62540;48.456;-4.456;2022-12-07T03:17:49;7.28;70.69
74178;DHT22;62540;48.456;-4.456;2022-12-07T03:20:19;7.27;70.79
74178;DHT22;62540;48.456;-4.456;2022-12-07T03:22:47;7.24;70.98
74178;DHT22;62540;48.456;-4.456;2022-12-07T03:25:15;7.21;71.03
74178;DHT22;62540;48.456;-4.456;2022-12-07T03:28:02;7.17;71.26
74178;DHT22;62540;48.456;-4.456;2022-12-07T03:33:17;7.24;71.60
74178;DHT22;62540;48.456;-4.456;2022-12-07T03:35:49;7.24;71.69
74178;DHT22;62540;48.456;-4.456;2022-12-07T03:38:27;7.27;71.51
74178;DHT22;62540;48.456;-4.456;2022-12-07T03:43:40;7.34;71.23
74178;DHT22;62540;48.456;-4.456;2022-12-07T03:46:14;7.35;71.41
74178;DHT22;62540;48.456;-4.456;2022-12-07T03:49:09;7.40;71.39
74178;DHT22;62540;48.456;-4.456;2022-12-07T03:54:19;7.36;71.33
74178;DHT22;62540;48.456;-4.456;2022-12-07T03:56:47;7.32;71.24
74178;DHT22;62540;48.456;-4.456;2022-12-07T03:59:14;7.30;71.54
74178;DHT22;62540;48.456;-4.456;2022-12-07T04:01:44;7.27;71.49
74178;DHT22;62540;48.456;-4.456;2022-12-07T04:04:16;7.27;71.60
74178;DHT22;62540;48.456;-4.456;2022-12-07T04:06:42;7.28;71.69
74178;DHT22;62540;48.456;-4.456;2022-12-07T04:09:07;7.31;71.60
74178;DHT22;62540;48.456;-4.456;2022-12-07T04:11:32;7.32;71.56
74178;DHT22;62540;48.456;-4.456;2022-12-07T04:13:58;7.35;71.59
74178;DHT22;62540;48.456;-4.456;2022-12-07T04:16:42;7.34;71.56
74178;DHT22;62540;48.456;-4.456;2022-12-07T04:19:07;7.35;71.69
74178;DHT22;62540;48.456;-4.456;2022-12-07T04:21:33;7.36;71.67
74178;DHT22;62540;48.456;-4.456;2022-12-07T04:23:58;7.36;71.80
74178;DHT22;62540;48.456;-4.456;2022-12-07T04:26:23;7.35;71.76
74178;DHT22;62540;48.456;-4.456;2022-12-07T04:28:49;7.38;71.70
74178;DHT22;62540;48.456;-4.456;2022-12-07T04:31:14;7.40;71.56
74178;DHT22;62540;48.456;-4.456;2022-12-07T04:33:40;7.43;71.41
74178;DHT22;62540;48.456;-4.456;2022-12-07T04:36:05;7.40;71.36
74178;DHT22;62540;48.456;-4.456;2022-12-07T04:38:31;7.38;71.47
74178;DHT22;62540;48.456;-4.456;2022-12-07T04:40:56;7.38;71.44
74178;DHT22;62540;48.456;-4.456;2022-12-07T04:43:21;7.41;71.35
74178;DHT22;62540;48.456;-4.456;2022-12-07T04:45:47;7.40;71.38
74178;DHT22;62540;48.456;-4.456;2022-12-07T04:48:13;7.43;71.31
74178;DHT22;62540;48.456;-4.456;2022-12-07T04:50:39;7.44;71.09
74178;DHT22;62540;48.456;-4.456;2022-12-07T04:53:04;7.43;71.02
74178;DHT22;62540;48.456;-4.456;2022-12-07T04:55:29;7.36;71.08
74178;DHT22;62540;48.456;-4.456;2022-12-07T04:57:55;7.34;71.16
74178;DHT22;62540;48.456;-4.456;2022-12-07T05:00:20;7.35;71.13
74178;DHT22;62540;48.456;-4.456;2022-12-07T05:02:46;7.34;71.17
74178;DHT22;62540;48.456;-4.456;2022-12-07T05:05:11;7.34;71.16
74178;DHT22;62540;48.456;-4.456;2022-12-07T05:07:36;7.35;71.23
74178;DHT22;62540;48.456;-4.456;2022-12-07T05:10:03;7.38;71.17
74178;DHT22;62540;48.456;-4.456;2022-12-07T05:12:28;7.40;71.16
74178;DHT22;62540;48.456;-4.456;2022-12-07T05:14:53;7.41;71.18
74178;DHT22;62540;48.456;-4.456;2022-12-07T05:17:20;7.44;70.96
74178;DHT22;62540;48.456;-4.456;2022-12-07T05:19:46;7.41;70.90
74178;DHT22;62540;48.456;-4.456;2022-12-07T05:22:11;7.44;71.00
74178;DHT22;62540;48.456;-4.456;2022-12-07T05:24:38;7.47;70.88
74178;DHT22;62540;48.456;-4.456;2022-12-07T05:27:04;7.48;70.81
74178;DHT22;62540;48.456;-4.456;2022-12-07T05:29:29;7.51;70.75
74178;DHT22;62540;48.456;-4.456;2022-12-07T05:31:54;7.50;70.47
74178;DHT22;62540;48.456;-4.456;2022-12-07T05:34:20;7.52;70.45
74178;DHT22;62540;48.456;-4.456;2022-12-07T05:36:45;7.50;70.29
74178;DHT22;62540;48.456;-4.456;2022-12-07T05:39:11;7.48;70.30
74178;DHT22;62540;48.456;-4.456;2022-12-07T05:41:36;7.48;70.18
74178;DHT22;62540;48.456;-4.456;2022-12-07T05:44:20;7.47;70.06
74178;DHT22;62540;48.456;-4.456;2022-12-07T05:46:45;7.47;70.38
74178;DHT22;62540;48.456;-4.456;2022-12-07T05:49:11;7.51;70.19
74178;DHT22;62540;48.456;-4.456;2022-12-07T05:51:36;7.47;70.00
74178;DHT22;62540;48.456;-4.456;2022-12-07T05:54:02;7.47;69.99
74178;DHT22;62540;48.456;-4.456;2022-12-07T05:56:27;7.50;69.88
74178;DHT22;62540;48.456;-4.456;2022-12-07T05:58:53;7.51;69.72
74178;DHT22;62540;48.456;-4.456;2022-12-07T06:01:37;7.47;69.58
74178;DHT22;62540;48.456;-4.456;2022-12-07T06:04:03;7.48;69.62
74178;DHT22;62540;48.456;-4.456;2022-12-07T06:06:29;7.44;69.52
74178;DHT22;62540;48.456;-4.456;2022-12-07T06:08:54;7.44;69.47
74178;DHT22;62540;48.456;-4.456;2022-12-07T06:11:19;7.47;69.62
74178;DHT22;62540;48.456;-4.456;2022-12-07T06:14:03;7.43;69.84
74178;DHT22;62540;48.456;-4.456;2022-12-07T06:16:29;7.45;69.92
74178;DHT22;62540;48.456;-4.456;2022-12-07T06:18:54;7.41;69.77
74178;DHT22;62540;48.456;-4.456;2022-12-07T06:21:20;7.40;69.84
74178;DHT22;62540;48.456;-4.456;2022-12-07T06:23:45;7.43;70.18
74178;DHT22;62540;48.456;-4.456;2022-12-07T06:26:10;7.43;69.42
74178;DHT22;62540;48.456;-4.456;2022-12-07T06:28:36;7.43;69.27
74178;DHT22;62540;48.456;-4.456;2022-12-07T06:31:02;7.43;68.99
74178;DHT22;62540;48.456;-4.456;2022-12-07T06:33:28;7.38;68.99
74178;DHT22;62540;48.456;-4.456;2022-12-07T06:35:54;7.45;69.12
74178;DHT22;62540;48.456;-4.456;2022-12-07T06:38:19;7.43;69.09
74178;DHT22;62540;48.456;-4.456;2022-12-07T06:40:45;7.44;69.32
74178;DHT22;62540;48.456;-4.456;2022-12-07T06:43:10;7.43;69.75
74178;DHT22;62540;48.456;-4.456;2022-12-07T06:45:36;7.44;69.82
74178;DHT22;62540;48.456;-4.456;2022-12-07T06:48:01;7.47;69.62
74178;DHT22;62540;48.456;-4.456;2022-12-07T06:50:26;7.48;69.63
74178;DHT22;62540;48.456;-4.456;2022-12-07T06:52:52;7.51;69.23
74178;DHT22;62540;48.456;-4.456;2022-12-07T06:55:18;7.52;69.44
74178;DHT22;62540;48.456;-4.456;2022-12-07T06:57:43;7.54;69.76
74178;DHT22;62540;48.456;-4.456;2022-12-07T07:00:09;7.56;69.85
74178;DHT22;62540;48.456;-4.456;2022-12-07T07:02:35;7.54;69.67
74178;DHT22;62540;48.456;-4.456;2022-12-07T07:05:00;7.55;69.96
74178;DHT22;62540;48.456;-4.456;2022-12-07T07:07:26;7.59;69.86
74178;DHT22;62540;48.456;-4.456;2022-12-07T07:09:51;7.58;69.71
74178;DHT22;62540;48.456;-4.456;2022-12-07T07:12:17;7.56;69.81
74178;DHT22;62540;48.456;-4.456;2022-12-07T07:14:42;7.64;69.76
74178;DHT22;62540;48.456;-4.456;2022-12-07T07:17:08;7.66;69.76
74178;DHT22;62540;48.456;-4.456;2022-12-07T07:19:34;7.66;69.49
74178;DHT22;62540;48.456;-4.456;2022-12-07T07:21:59;7.69;69.76
74178;DHT22;62540;48.456;-4.456;2022-12-07T07:24:25;7.71;69.63
74178;DHT22;62540;48.456;-4.456;2022-12-07T07:26:50;7.75;69.60
74178;DHT22;62540;48.456;-4.456;2022-12-07T07:29:15;7.75;69.77
74178;DHT22;62540;48.456;-4.456;2022-12-07T07:31:41;7.75;70.08
74178;DHT22;62540;48.456;-4.456;2022-12-07T07:34:06;7.72;70.05
74178;DHT22;62540;48.456;-4.456;2022-12-07T07:36:32;7.73;69.76
74178;DHT22;62540;48.456;-4.456;2022-12-07T07:38:57;7.75;69.52
74178;DHT22;62540;48.456;-4.456;2022-12-07T07:41:23;7.71;69.46
74178;DHT22;62540;48.456;-4.456;2022-12-07T07:43:48;7.69;69.47
74178;DHT22;62540;48.456;-4.456;2022-12-07T07:46:14;7.62;69.62
74178;DHT22;62540;48.456;-4.456;2022-12-07T07:48:39;7.64;69.90
74178;DHT22;62540;48.456;-4.456;2022-12-07T07:51:06;7.61;70.12
74178;DHT22;62540;48.456;-4.456;2022-12-07T07:53:32;7.64;69.92
74178;DHT22;62540;48.456;-4.456;2022-12-07T07:55:57;7.62;70.02
74178;DHT22;62540;48.456;-4.456;2022-12-07T07:58:23;7.58;70.30
74178;DHT22;62540;48.456;-4.456;2022-12-07T08:00:49;7.61;70.42
74178;DHT22;62540;48.456;-4.456;2022-12-07T08:03:15;7.62;70.42
74178;DHT22;62540;48.456;-4.456;2022-12-07T08:05:40;7.61;70.46
74178;DHT22;62540;48.456;-4.456;2022-12-07T08:08:06;7.62;70.55
74178;DHT22;62540;48.456;-4.456;2022-12-07T08:10:31;7.68;70.49
74178;DHT22;62540;48.456;-4.456;2022-12-07T08:12:57;7.68;70.41
74178;DHT22;62540;48.456;-4.456;2022-12-07T08:15:43;7.68;70.38
74178;DHT22;62540;48.456;-4.456;2022-12-07T08:18:09;7.68;70.51
74178;DHT22;62540;48.456;-4.456;2022-12-07T08:20:36;7.66;70.53
74178;DHT22;62540;48.456;-4.456;2022-12-07T08:23:03;7.68;70.42
74178;DHT22;62540;48.456;-4.456;2022-12-07T08:25:28;7.64;70.67
74178;DHT22;62540;48.456;-4.456;2022-12-07T08:27:54;7.65;70.61
74178;DHT22;62540;48.456;-4.456;2022-12-07T08:30:20;7.64;70.41
74178;DHT22;62540;48.456;-4.456;2022-12-07T08:32:46;7.64;70.39
74178;DHT22;62540;48.456;-4.456;2022-12-07T08:35:12;7.64;70.61
74178;DHT22;62540;48.456;-4.456;2022-12-07T08:37:38;7.68;70.63
74178;DHT22;62540;48.456;-4.456;2022-12-07T08:40:05;7.71;70.57
74178;DHT22;62540;48.456;-4.456;2022-12-07T08:42:31;7.76;70.49
74178;DHT22;62540;48.456;-4.456;2022-12-07T08:45:07;7.81;70.55
74178;DHT22;62540;48.456;-4.456;2022-12-07T08:47:36;7.87;70.78
74178;DHT22;62540;48.456;-4.456;2022-12-07T08:50:03;7.93;70.53
74178;DHT22;62540;48.456;-4.456;2022-12-07T08:52:30;7.94;70.38
74178;DHT22;62540;48.456;-4.456;2022-12-07T08:54:56;7.99;69.98
74178;DHT22;62540;48.456;-4.456;2022-12-07T08:57:22;8.04;69.87
74178;DHT22;62540;48.456;-4.456;2022-12-07T08:59:48;8.09;69.70
74178;DHT22;62540;48.456;-4.456;2022-12-07T09:02:13;8.09;69.35
74178;DHT22;62540;48.456;-4.456;2022-12-07T09:04:38;8.09;69.41
74178;DHT22;62540;48.456;-4.456;2022-12-07T09:07:04;8.14;69.70
74178;DHT22;62540;48.456;-4.456;2022-12-07T09:09:30;8.19;69.85
74178;DHT22;62540;48.456;-4.456;2022-12-07T09:11:55;8.21;69.40
74178;DHT22;62540;48.456;-4.456;2022-12-07T09:14:21;8.24;69.03
74178;DHT22;62540;48.456;-4.456;2022-12-07T09:16:46;8.23;68.78
74178;DHT22;62540;48.456;-4.456;2022-12-07T09:19:11;8.24;68.81
74178;DHT22;62540;48.456;-4.456;2022-12-07T09:21:37;8.23;68.81
74178;DHT22;62540;48.456;-4.456;2022-12-07T09:24:02;8.26;69.00
74178;DHT22;62540;48.456;-4.456;2022-12-07T09:26:28;8.27;68.67
74178;DHT22;62540;48.456;-4.456;2022-12-07T09:28:53;8.30;68.61
74178;DHT22;62540;48.456;-4.456;2022-12-07T09:31:19;8.36;68.78
74178;DHT22;62540;48.456;-4.456;2022-12-07T09:33:44;8.38;68.54
74178;DHT22;62540;48.456;-4.456;2022-12-07T09:36:10;8.43;68.86
74178;DHT22;62540;48.456;-4.456;2022-12-07T09:38:35;8.48;68.60
74178;DHT22;62540;48.456;-4.456;2022-12-07T09:41:07;8.54;68.39
74178;DHT22;62540;48.456;-4.456;2022-12-07T09:43:35;8.61;67.76
74178;DHT22;62540;48.456;-4.456;2022-12-07T09:46:00;8.61;67.95
74178;DHT22;62540;48.456;-4.456;2022-12-07T09:48:32;8.72;67.69
74178;DHT22;62540;48.456;-4.456;2022-12-07T09:51:00;8.79;67.91
74178;DHT22;62540;48.456;-4.456;2022-12-07T09:53:29;8.82;67.70
74178;DHT22;62540;48.456;-4.456;2022-12-07T09:55:55;8.91;67.29
74178;DHT22;62540;48.456;-4.456;2022-12-07T09:58:23;8.98;67.46
74178;DHT22;62540;48.456;-4.456;2022-12-07T10:01:01;9.08;67.50
74178;DHT22;62540;48.456;-4.456;2022-12-07T10:03:30;9.16;66.72
74178;DHT22;62540;48.456;-4.456;2022-12-07T10:05:56;9.20;66.49
74178;DHT22;62540;48.456;-4.456;2022-12-07T10:08:22;9.30;67.03
74178;DHT22;62540;48.456;-4.456;2022-12-07T10:10:53;9.37;65.64
74178;DHT22;62540;48.456;-4.456;2022-12-07T10:13:44;9.51;66.07
74178;DHT22;62540;48.456;-4.456;2022-12-07T10:18:50;9.71;65.82
74178;DHT22;62540;48.456;-4.456;2022-12-07T10:21:24;9.85;64.72
74178;DHT22;62540;48.456;-4.456;2022-12-07T10:24:29;9.97;62.97
74178;DHT22;62540;48.456;-4.456;2022-12-07T10:26:54;10.03;63.97
74178;DHT22;62540;48.456;-4.456;2022-12-07T10:29:32;10.13;64.22
74178;DHT22;62540;48.456;-4.456;2022-12-07T10:34:39;10.20;62.71
74178;DHT22;62540;48.456;-4.456;2022-12-07T10:37:17;10.26;63.05
74178;DHT22;62540;48.456;-4.456;2022-12-07T10:39:49;10.30;63.65
74178;DHT22;62540;48.456;-4.456;2022-12-07T10:44:42;10.49;60.02
74178;DHT22;62540;48.456;-4.456;2022-12-07T10:57:51;10.83;60.10
74178;DHT22;62540;48.456;-4.456;2022-12-07T11:00:24;10.87;60.47
74178;DHT22;62540;48.456;-4.456;2022-12-07T11:07:57;11.25;61.36
74178;DHT22;62540;48.456;-4.456;2022-12-07T11:10:40;11.43;60.36
74178;DHT22;62540;48.456;-4.456;2022-12-07T11:13:36;11.58;60.48
74178;DHT22;62540;48.456;-4.456;2022-12-07T11:18:59;11.56;57.30
74178;DHT22;62540;48.456;-4.456;2022-12-07T11:22:03;11.59;59.43
74178;DHT22;62540;48.456;-4.456;2022-12-07T11:29:49;11.74;59.51
74178;DHT22;62540;48.456;-4.456;2022-12-07T11:32:36;11.80;58.77
74178;DHT22;62540;48.456;-4.456;2022-12-07T11:35:26;11.84;59.38
74178;DHT22;62540;48.456;-4.456;2022-12-07T11:37:58;11.89;59.68
74178;DHT22;62540;48.456;-4.456;2022-12-07T11:40:28;11.83;58.76
74178;DHT22;62540;48.456;-4.456;2022-12-07T11:42:59;11.83;58.69
74178;DHT22;62540;48.456;-4.456;2022-12-07T11:45:34;11.83;58.45
74178;DHT22;62540;48.456;-4.456;2022-12-07T11:48:09;11.90;58.93
74178;DHT22;62540;48.456;-4.456;2022-12-07T11:50:36;11.95;58.63
74178;DHT22;62540;48.456;-4.456;2022-12-07T11:56:17;12.01;58.56
74178;DHT22;62540;48.456;-4.456;2022-12-07T12:06:37;12.04;58.05
74178;DHT22;62540;48.456;-4.456;2022-12-07T12:20:00;12.69;57.09
74178;DHT22;62540;48.456;-4.456;2022-12-07T12:25:27;12.79;56.57
74178;DHT22;62540;48.456;-4.456;2022-12-07T12:27:55;12.73;56.21
74178;DHT22;62540;48.456;-4.456;2022-12-07T12:33:28;12.58;56.87
74178;DHT22;62540;48.456;-4.456;2022-12-07T12:36:21;12.46;56.62
74178;DHT22;62540;48.456;-4.456;2022-12-07T12:38:49;12.38;57.67
74178;DHT22;62540;48.456;-4.456;2022-12-07T12:46:52;12.23;57.30
74178;DHT22;62540;48.456;-4.456;2022-12-07T12:51:44;12.13;57.31
74178;DHT22;62540;48.456;-4.456;2022-12-07T12:59:30;12.10;57.17
74178;DHT22;62540;48.456;-4.456;2022-12-07T13:20:50;12.31;56.85
74178;DHT22;62540;48.456;-4.456;2022-12-07T13:23:23;12.34;56.74
74178;DHT22;62540;48.456;-4.456;2022-12-07T13:31:33;12.30;56.83
74178;DHT22;62540;48.456;-4.456;2022-12-07T13:33:59;12.23;55.52
74178;DHT22;62540;48.456;-4.456;2022-12-07T13:36:27;12.23;57.69
74178;DHT22;62540;48.456;-4.456;2022-12-07T13:38:59;12.25;57.65
74178;DHT22;62540;48.456;-4.456;2022-12-07T13:41:29;12.23;57.93
74178;DHT22;62540;48.456;-4.456;2022-12-07T13:46:44;12.16;58.03
74178;DHT22;62540;48.456;-4.456;2022-12-07T13:49:18;12.11;58.07
74178;DHT22;62540;48.456;-4.456;2022-12-07T13:51:43;12.16;58.50
74178;DHT22;62540;48.456;-4.456;2022-12-07T13:54:11;12.18;58.07
74178;DHT22;62540;48.456;-4.456;2022-12-07T13:56:37;12.18;58.01
74178;DHT22;62540;48.456;-4.456;2022-12-07T13:59:17;12.20;57.92
74178;DHT22;62540;48.456;-4.456;2022-12-07T14:01:45;12.21;57.86
74178;DHT22;62540;48.456;-4.456;2022-12-07T14:04:30;12.21;58.63
74178;DHT22;62540;48.456;-4.456;2022-12-07T14:06:56;12.30;58.44
74178;DHT22;62540;48.456;-4.456;2022-12-07T14:09:24;12.38;57.67
74178;DHT22;62540;48.456;-4.456;2022-12-07T14:11:54;12.38;57.61
74178;DHT22;62540;48.456;-4.456;2022-12-07T14:14:26;12.44;57.79
74178;DHT22;62540;48.456;-4.456;2022-12-07T14:17:28;12.49;57.65
74178;DHT22;62540;48.456;-4.456;2022-12-07T14:20:01;12.48;57.56
74178;DHT22;62540;48.456;-4.456;2022-12-07T14:22:35;12.42;57.68
74178;DHT22;62540;48.456;-4.456;2022-12-07T14:25:22;12.38;57.67
74178;DHT22;62540;48.456;-4.456;2022-12-07T14:27:59;12.30;57.52
74178;DHT22;62540;48.456;-4.456;2022-12-07T14:30:29;12.24;57.40
74178;DHT22;62540;48.456;-4.456;2022-12-07T14:33:00;12.25;58.01
74178;DHT22;62540;48.456;-4.456;2022-12-07T14:35:26;12.24;57.65
74178;DHT22;62540;48.456;-4.456;2022-12-07T14:37:52;12.24;57.57
74178;DHT22;62540;48.456;-4.456;2022-12-07T14:40:22;12.20;57.03
74178;DHT22;62540;48.456;-4.456;2022-12-07T14:42:51;12.13;57.40
74178;DHT22;62540;48.456;-4.456;2022-12-07T14:45:21;12.10;57.74
74178;DHT22;62540;48.456;-4.456;2022-12-07T14:47:47;12.11;57.87
74178;DHT22;62540;48.456;-4.456;2022-12-07T14:50:19;12.14;58.56
74178;DHT22;62540;48.456;-4.456;2022-12-07T14:52:49;12.18;58.34
74178;DHT22;62540;48.456;-4.456;2022-12-07T14:55:30;12.08;58.19
74178;DHT22;62540;48.456;-4.456;2022-12-07T14:57:56;12.05;58.32
74178;DHT22;62540;48.456;-4.456;2022-12-07T15:00:24;11.97;58.33
74178;DHT22;62540;48.456;-4.456;2022-12-07T15:02:50;11.87;58.97
74178;DHT22;62540;48.456;-4.456;2022-12-07T15:05:16;11.86;59.02
74178;DHT22;62540;48.456;-4.456;2022-12-07T15:07:42;11.83;59.49
74178;DHT22;62540;48.456;-4.456;2022-12-07T15:10:23;11.72;59.39
74178;DHT22;62540;48.456;-4.456;2022-12-07T15:12:48;11.63;59.42
74178;DHT22;62540;48.456;-4.456;2022-12-07T15:15:14;11.53;59.64
74178;DHT22;62540;48.456;-4.456;2022-12-07T15:17:40;11.45;59.96
74178;DHT22;62540;48.456;-4.456;2022-12-07T15:20:10;11.43;60.37
74178;DHT22;62540;48.456;-4.456;2022-12-07T15:22:36;11.40;60.24
74178;DHT22;62540;48.456;-4.456;2022-12-07T15:25:02;11.34;60.58
74178;DHT22;62540;48.456;-4.456;2022-12-07T15:27:30;11.32;60.92
74178;DHT22;62540;48.456;-4.456;2022-12-07T15:29:55;11.28;60.67
74178;DHT22;62540;48.456;-4.456;2022-12-07T15:32:21;11.24;60.68
74178;DHT22;62540;48.456;-4.456;2022-12-07T15:34:48;11.18;60.54
74178;DHT22;62540;48.456;-4.456;2022-12-07T15:37:13;11.07;60.90
74178;DHT22;62540;48.456;-4.456;2022-12-07T15:39:38;10.98;60.83
74178;DHT22;62540;48.456;-4.456;2022-12-07T15:42:04;10.93;61.36
74178;DHT22;62540;48.456;-4.456;2022-12-07T15:44:29;10.85;61.60
74178;DHT22;62540;48.456;-4.456;2022-12-07T15:47:13;10.87;61.85
74178;DHT22;62540;48.456;-4.456;2022-12-07T15:49:38;10.83;61.52
74178;DHT22;62540;48.456;-4.456;2022-12-07T15:52:04;10.78;61.49
74178;DHT22;62540;48.456;-4.456;2022-12-07T15:54:30;10.76;61.61
74178;DHT22;62540;48.456;-4.456;2022-12-07T15:56:57;10.67;61.86
74178;DHT22;62540;48.456;-4.456;2022-12-07T15:59:23;10.67;61.90
74178;DHT22;62540;48.456;-4.456;2022-12-07T16:01:48;10.63;62.32
74178;DHT22;62540;48.456;-4.456;2022-12-07T16:04:14;10.63;62.63
74178;DHT22;62540;48.456;-4.456;2022-12-07T16:06:40;10.64;62.63
74178;DHT22;62540;48.456;-4.456;2022-12-07T16:09:05;10.68;62.58
74178;DHT22;62540;48.456;-4.456;2022-12-07T16:11:31;10.67;62.68
74178;DHT22;62540;48.456;-4.456;2022-12-07T16:13:56;10.66;62.72
74178;DHT22;62540;48.456;-4.456;2022-12-07T16:16:22;10.64;62.66
74178;DHT22;62540;48.456;-4.456;2022-12-07T16:18:49;10.57;62.68
74178;DHT22;62540;48.456;-4.456;2022-12-07T16:21:16;10.55;62.68
74178;DHT22;62540;48.456;-4.456;2022-12-07T16:23:42;10.46;62.83
74178;DHT22;62540;48.456;-4.456;2022-12-07T16:26:11;10.39;62.88
74178;DHT22;62540;48.456;-4.456;2022-12-07T16:28:37;10.37;62.99
74178;DHT22;62540;48.456;-4.456;2022-12-07T16:31:05;10.33;63.05
74178;DHT22;62540;48.456;-4.456;2022-12-07T16:33:33;10.29;63.21
74178;DHT22;62540;48.456;-4.456;2022-12-07T16:35:58;10.26;63.06
74178;DHT22;62540;48.456;-4.456;2022-12-07T16:38:24;10.22;63.16
74178;DHT22;62540;48.456;-4.456;2022-12-07T16:40:50;10.22;63.11
74178;DHT22;62540;48.456;-4.456;2022-12-07T16:43:15;10.18;63.23
74178;DHT22;62540;48.456;-4.456;2022-12-07T16:45:41;10.13;63.30
74178;DHT22;62540;48.456;-4.456;2022-12-07T16:48:06;10.09;63.34
74178;DHT22;62540;48.456;-4.456;2022-12-07T16:50:32;10.03;63.46
74178;DHT22;62540;48.456;-4.456;2022-12-07T16:52:57;10.01;63.52
74178;DHT22;62540;48.456;-4.456;2022-12-07T16:55:22;9.94;63.61
74178;DHT22;62540;48.456;-4.456;2022-12-07T16:57:48;9.88;63.61
74178;DHT22;62540;48.456;-4.456;2022-12-07T17:00:13;9.82;63.66
74178;DHT22;62540;48.456;-4.456;2022-12-07T17:02:39;9.78;64.26
74178;DHT22;62540;48.456;-4.456;2022-12-07T17:05:04;9.68;64.25
74178;DHT22;62540;48.456;-4.456;2022-12-07T17:07:30;9.70;64.50
74178;DHT22;62540;48.456;-4.456;2022-12-07T17:09:55;9.65;64.43
74178;DHT22;62540;48.456;-4.456;2022-12-07T17:12:21;9.64;64.57
74178;DHT22;62540;48.456;-4.456;2022-12-07T17:14:46;9.61;64.77
74178;DHT22;62540;48.456;-4.456;2022-12-07T17:17:30;9.58;64.93
74178;DHT22;62540;48.456;-4.456;2022-12-07T17:19:56;9.55;65.28
74178;DHT22;62540;48.456;-4.456;2022-12-07T17:22:21;9.57;65.60
74178;DHT22;62540;48.456;-4.456;2022-12-07T17:24:47;9.58;65.64
74178;DHT22;62540;48.456;-4.456;2022-12-07T17:27:12;9.58;65.56
74178;DHT22;62540;48.456;-4.456;2022-12-07T17:29:38;9.64;65.49
74178;DHT22;62540;48.456;-4.456;2022-12-07T17:32:03;9.60;65.46
74178;DHT22;62540;48.456;-4.456;2022-12-07T17:34:29;9.58;65.88
74178;DHT22;62540;48.456;-4.456;2022-12-07T17:36:54;9.57;65.68
74178;DHT22;62540;48.456;-4.456;2022-12-07T17:39:20;9.57;65.56
74178;DHT22;62540;48.456;-4.456;2022-12-07T17:41:45;9.57;65.69
74178;DHT22;62540;48.456;-4.456;2022-12-07T17:44:29;9.54;65.78
74178;DHT22;62540;48.456;-4.456;2022-12-07T17:46:55;9.54;65.87
74178;DHT22;62540;48.456;-4.456;2022-12-07T17:49:23;9.50;65.79
74178;DHT22;62540;48.456;-4.456;2022-12-07T17:51:49;9.50;65.87
74178;DHT22;62540;48.456;-4.456;2022-12-07T17:54:33;9.46;65.91
74178;DHT22;62540;48.456;-4.456;2022-12-07T17:56:58;9.44;66.26
74178;DHT22;62540;48.456;-4.456;2022-12-07T17:59:24;9.44;66.27